Startpagina
METAR-TAF:

METAR-TAF

Vliegvelden :

Flughafen Berlin-Tegel

Berlijn, Duitsland

breedte: 52-34N, lengte: 013-19E, hoogte: 37 m

Actueel weer

Dit bericht is 5 minuten geleden gemaakt, om 17:20 UTC
Wind 10 kt uit het westzuidwesten
Temperatuur 12°C
Vochtigheid 50%
Druk 1031 hPa
Zicht 10 km of meer
Gebroken wolken op 4200 ft

METAR: EDDT 201720Z 25010KT 9999 BKN042 12/02 Q1031 NOSIG

Tijdstip: 18:25 (17:25 UTC)

Verwachting

Dit bericht is 6 uur en het 25 minuten geleden gemaakt, om 11:00 UTC
Verwachting geldig van 20 om 12 UTC tot 21 om 12 UTC
Wind 10 kt uit het westzuidwesten
Zicht 10 km of meer
Gebroken wolken op 3500 ft
Wijzigt naar
van 20 om 19 UTC tot 20 om 20 UTC
Wind 5 kt uit het westen
Wijzigt naar
van 21 om 02 UTC tot 21 om 05 UTC
Gebroken wolken op 900 ft
Wijzigt naar
van 21 om 05 UTC tot 21 om 08 UTC
Gebroken wolken op 2000 ft

TAF: EDDT 201100Z 2012/2112 25010KT 9999 BKN035 BECMG 2019/2020 26005KT BECMG 2102/2105 BKN009 BECMG 2105/2108 BKN020

Waarnemingen en weersverwachtingen van meer dan 4000 vliegvelden (METAR en TAF).

De beschikbare stations zijn de gele en rode punten op de kaart.

Ga met uw muis naar het station om de naam te zien.

Klik dan om waarnemingen en weersverwachtingen te zien.

kaart wijzigen: klik op de groene knoppen met een zwart kruis om in te zoomen, op de groene knop met een streepje om uit te zoomen of op de groene pijlen voor aangrenzende kaarten.


METAR-TAF: